Terminal Aerodrome Forecast
Issued by NWS Wilmington, OH

Current Version | Previous Version | Graphics & Text | Print | Product List | Glossary On
Versions: 1 2 3 4 5 6 7 8 9 10 11 12 13 14 15 16 17 18 19 20
000
FTUS41 KILN 231021 AAB
TAFDAY
TAF AMD
KDAY 231021Z 2310/2406 01014KT 4SM BR VCSH OVC004
     FM231900 36012KT P6SM OVC008
     FM240000 34008KT P6SM OVC004=

USA.gov is the U.S. government's official web portal to all federal, state and local government web resources and services.